Preview of NWS' New Version of Forecast
This preview is not operational and should not be used for support decisions.

Terminal Aerodrome Forecast (TAF)

Issued by National Weather Service (NWS)

                            
000
FTUS42 KMFL 132105 AAA
TAFMIA
TAF AMD
KMIA 132105Z 1321/1424 13012KT P6SM FEW040 BKN250
     FM140000 12008KT P6SM BKN250
     FM141400 14015G25KT P6SM SCT025 BKN050 BKN250=